Time;durP1;ratioP1;P1;durP2;ratioP2;P2;SDS_P1;SDS_P2;PMS_P1;PMS_P2;Temp;Humidity;BMP_temperature;BMP_pressure;BME280_temperature;BME280_humidity;BME280_pressure;Samples;Min_cycle;Max_cycle;Signal;HPM_P1;HPM_P2
2023/01/25 00:00:17;;;;;;;33.10;24.13;;;3.30;49.40;;;;;;5070475;28;20524;-73
2023/01/25 00:02:42;;;;;;;38.10;24.27;;;3.40;49.50;;;;;;5070149;28;20368;-74
2023/01/25 00:05:08;;;;;;;34.40;24.30;;;3.50;47.00;;;;;;5070382;28;20380;-74
2023/01/25 00:07:34;;;;;;;39.63;25.20;;;3.50;47.50;;;;;;5071418;28;20415;-73
2023/01/25 00:09:59;;;;;;;39.30;25.60;;;3.20;49.70;;;;;;5075008;28;20397;-74
2023/01/25 00:12:25;;;;;;;36.13;25.60;;;3.10;52.70;;;;;;5074527;28;20887;-73
2023/01/25 00:14:50;;;;;;;31.15;23.20;;;3.00;53.10;;;;;;5074370;28;20379;-73
2023/01/25 00:17:16;;;;;;;33.45;23.42;;;2.90;52.60;;;;;;5074331;28;20406;-73
2023/01/25 00:19:41;;;;;;;34.70;24.02;;;2.80;54.60;;;;;;5074474;28;20390;-74
2023/01/25 00:22:07;;;;;;;36.65;24.60;;;2.90;54.20;;;;;;5074870;28;20376;-74
2023/01/25 00:24:33;;;;;;;34.83;23.40;;;3.00;54.20;;;;;;5074807;28;20736;-75
2023/01/25 00:26:58;;;;;;;32.77;23.43;;;3.10;55.90;;;;;;5056704;28;20391;-73
2023/01/25 00:29:24;;;;;;;32.43;22.93;;;3.10;54.40;;;;;;5074783;28;20391;-73
2023/01/25 00:32:07;;;;;;;33.53;22.20;;;3.40;49.40;;;;;;5074863;28;20407;-73
2023/01/25 00:34:43;;;;;;;35.30;24.80;;;3.40;49.20;;;;;;5074788;28;20380;-73
2023/01/25 00:37:23;;;;;;;35.13;24.75;;;3.30;52.70;;;;;;5074831;28;20855;-74
2023/01/25 00:39:49;;;;;;;37.35;25.08;;;3.10;54.50;;;;;;5074660;28;20459;-73
2023/01/25 00:42:16;;;;;;;38.60;25.33;;;3.00;56.30;;;;;;5073895;28;20499;-73
2023/01/25 00:44:42;;;;;;;36.25;24.17;;;3.20;53.60;;;;;;5073826;28;20409;-74
2023/01/25 00:47:12;;;;;;;33.92;24.38;;;3.20;53.60;;;;;;5073802;28;20451;-74
2023/01/25 00:49:39;;;;;;;36.95;24.42;;;3.20;52.70;;;;;;5073757;28;20382;-74
2023/01/25 00:52:05;;;;;;;35.90;24.45;;;3.20;53.10;;;;;;5056698;28;20439;-75
2023/01/25 00:54:31;;;;;;;45.47;26.60;;;3.20;53.60;;;;;;5074571;28;20372;-74
2023/01/25 00:56:56;;;;;;;38.92;26.38;;;3.10;54.40;;;;;;5073769;28;20467;-74
2023/01/25 00:59:23;;;;;;;39.03;26.50;;;3.00;55.60;;;;;;5073723;28;20386;-74
2023/01/25 01:01:50;;;;;;;37.25;26.27;;;2.90;56.20;;;;;;5074661;28;20470;-73
2023/01/25 01:04:16;;;;;;;39.92;26.15;;;2.90;56.50;;;;;;5073555;28;20376;-72
2023/01/25 01:06:42;;;;;;;36.00;24.80;;;3.00;57.20;;;;;;5074093;28;20906;-73
2023/01/25 01:09:14;;;;;;;35.22;25.02;;;3.00;56.50;;;;;;5074268;28;20814;-72
2023/01/25 01:11:39;;;;;;;36.45;25.40;;;2.90;57.10;;;;;;5074235;28;20440;-72
2023/01/25 01:14:05;;;;;;;39.33;25.63;;;3.00;58.40;;;;;;5074781;28;20396;-73
2023/01/25 01:16:31;;;;;;;37.87;25.77;;;3.00;54.90;;;;;;5074128;28;20404;-73
2023/01/25 01:18:57;;;;;;;39.22;26.73;;;2.90;55.50;;;;;;5073111;28;20380;-72
2023/01/25 01:21:23;;;;;;;39.73;26.53;;;2.90;57.00;;;;;;5056013;28;20932;-73
2023/01/25 01:23:48;;;;;;;37.72;25.17;;;3.00;59.30;;;;;;5074528;28;20437;-75
2023/01/25 01:26:18;;;;;;;35.80;25.10;;;3.10;57.20;;;;;;5074406;28;20379;-73
2023/01/25 01:28:44;;;;;;;36.88;25.33;;;3.20;53.20;;;;;;5074263;28;20720;-74
2023/01/25 01:31:19;;;;;;;38.38;26.30;;;2.90;55.00;;;;;;5073646;28;20387;-72
2023/01/25 01:33:51;;;;;;;37.00;25.88;;;2.70;57.00;;;;;;5074035;28;20380;-74
2023/01/25 01:36:19;;;;;;;38.35;26.02;;;2.60;58.50;;;;;;5055743;28;20410;-74
2023/01/25 01:38:45;;;;;;;34.22;24.48;;;2.80;57.30;;;;;;5074116;28;20395;-75
2023/01/25 01:41:11;;;;;;;36.38;24.30;;;3.00;55.40;;;;;;5075456;28;20733;-74
2023/01/25 01:43:38;;;;;;;36.70;24.45;;;3.20;52.40;;;;;;5079979;28;20384;-72
2023/01/25 01:46:08;;;;;;;33.23;23.87;;;3.40;50.00;;;;;;5081527;28;20403;-74
2023/01/25 01:48:42;;;;;;;36.25;25.17;;;3.40;49.90;;;;;;5077542;28;20379;-74
2023/01/25 01:51:14;;;;;;;49.60;27.80;;;3.20;51.20;;;;;;5073050;28;20391;-73
2023/01/25 01:53:45;;;;;;;38.83;26.20;;;3.10;52.70;;;;;;5072835;28;20455;-72
2023/01/25 01:56:17;;;;;;;36.03;25.48;;;2.90;55.30;;;;;;5072446;28;20411;-74
2023/01/25 01:58:44;;;;;;;38.07;26.20;;;2.90;56.30;;;;;;5072577;28;20469;-71
2023/01/25 02:01:10;;;;;;;40.17;26.88;;;2.90;56.30;;;;;;5072560;28;20429;-72
2023/01/25 02:03:36;;;;;;;38.85;25.63;;;2.90;56.20;;;;;;5072828;28;20388;-72
2023/01/25 02:06:13;;;;;;;39.00;25.60;;;3.00;57.00;;;;;;5073141;28;20437;-73
2023/01/25 02:08:39;;;;;;;35.45;24.48;;;3.20;53.40;;;;;;5073298;28;20737;-73
2023/01/25 02:11:07;;;;;;;37.97;26.08;;;3.30;53.30;;;;;;5072865;28;20391;-72
2023/01/25 02:13:35;;;;;;;37.95;26.15;;;3.20;52.40;;;;;;5072938;28;20477;-72
2023/01/25 02:16:02;;;;;;;40.38;27.15;;;3.20;52.70;;;;;;5075079;28;20395;-73
2023/01/25 02:18:28;;;;;;;35.47;25.20;;;3.00;54.00;;;;;;5074283;28;20410;-73
2023/01/25 02:20:56;;;;;;;39.90;26.30;;;2.90;56.70;;;;;;5061970;28;20391;-72
2023/01/25 02:23:51;;;;;;;36.15;24.63;;;3.00;57.50;;;;;;5085538;28;20395;-72
2023/01/25 02:26:20;;;;;;;36.95;25.90;;;2.90;56.70;;;;;;5071952;28;20393;-73
2023/01/25 02:28:54;;;;;;;36.30;25.50;;;3.10;57.30;;;;;;5071963;28;20860;-73
2023/01/25 02:31:19;;;;;;;35.80;24.75;;;3.10;57.30;;;;;;5072817;28;20388;-72
2023/01/25 02:33:45;;;;;;;35.90;25.43;;;3.00;56.10;;;;;;5072780;28;20387;-74
2023/01/25 02:36:10;;;;;;;38.90;26.20;;;3.10;55.00;;;;;;5073071;28;20407;-72
2023/01/25 02:38:45;;;;;;;39.70;26.97;;;3.10;55.30;;;;;;5073304;28;20384;-74
2023/01/25 02:41:26;;;;;;;37.08;25.00;;;3.00;55.80;;;;;;5062365;28;20383;-73
2023/01/25 02:43:52;;;;;;;36.15;24.63;;;3.10;54.70;;;;;;5090869;28;20418;-74
2023/01/25 02:46:26;;;;;;;41.90;26.98;;;3.10;52.50;;;;;;5067590;28;20769;-72
2023/01/25 02:48:53;;;;;;;41.35;27.95;;;2.80;55.80;;;;;;5080243;28;20375;-73
2023/01/25 02:51:19;;;;;;;46.25;29.45;;;2.60;58.20;;;;;;5082049;28;20471;-73
2023/01/25 02:53:45;;;;;;;38.75;26.50;;;2.60;59.80;;;;;;5081582;28;20384;-73
2023/01/25 02:56:10;;;;;;;37.45;25.00;;;3.00;54.80;;;;;;5072359;28;20961;-74
2023/01/25 02:58:36;;;;;;;37.40;24.98;;;3.20;51.80;;;;;;5071399;28;20481;-72
2023/01/25 03:01:01;;;;;;;38.57;26.20;;;3.20;51.50;;;;;;5071215;28;20884;-72
2023/01/25 03:03:27;;;;;;;44.37;27.77;;;3.20;52.90;;;;;;5071406;28;20380;-72
2023/01/25 03:05:52;;;;;;;40.23;26.80;;;3.20;52.90;;;;;;5070999;28;20379;-71
2023/01/25 03:08:18;;;;;;;42.90;27.00;;;3.00;54.40;;;;;;5070956;28;20456;-72
2023/01/25 03:10:43;;;;;;;43.20;27.77;;;2.80;56.70;;;;;;5070958;28;20899;-73
2023/01/25 03:13:10;;;;;;;42.10;27.83;;;2.70;59.00;;;;;;5070771;28;20383;-72
2023/01/25 03:15:35;;;;;;;44.72;27.45;;;2.70;60.80;;;;;;5070919;28;20399;-71
2023/01/25 03:18:01;;;;;;;42.53;26.60;;;3.10;55.40;;;;;;5071097;28;20387;-73
2023/01/25 03:20:26;;;;;;;41.22;27.10;;;3.20;53.20;;;;;;5072462;28;20500;-72
2023/01/25 03:22:52;;;;;;;41.92;25.90;;;3.20;52.70;;;;;;5074611;28;20372;-73
2023/01/25 03:25:17;;;;;;;43.72;26.80;;;3.30;51.40;;;;;;5077038;28;20466;-76
2023/01/25 03:27:43;;;;;;;41.20;26.80;;;3.20;53.90;;;;;;5076232;28;20396;-75
2023/01/25 03:30:09;;;;;;;41.22;26.70;;;3.00;56.10;;;;;;5078611;28;20433;-73
2023/01/25 03:32:35;;;;;;;41.10;25.20;;;3.10;55.50;;;;;;5080943;28;20387;-75
2023/01/25 03:35:01;;;;;;;45.55;28.70;;;3.10;53.70;;;;;;5076523;28;20810;-73
2023/01/25 03:37:29;;;;;;;45.10;27.10;;;3.00;53.40;;;;;;5077396;28;20467;-73
2023/01/25 03:39:55;;;;;;;43.33;26.65;;;3.00;54.80;;;;;;5077096;28;20473;-74
2023/01/25 03:42:21;;;;;;;43.83;26.67;;;3.00;55.30;;;;;;5075889;28;20384;-74
2023/01/25 03:44:46;;;;;;;43.13;27.63;;;3.00;55.20;;;;;;5055142;28;20888;-73
2023/01/25 03:47:12;;;;;;;38.17;25.30;;;3.00;54.70;;;;;;5070740;28;20388;-73
2023/01/25 03:49:37;;;;;;;40.20;25.83;;;2.90;55.50;;;;;;5070501;28;20923;-72
2023/01/25 03:52:03;;;;;;;47.20;28.80;;;2.80;56.40;;;;;;5070346;28;20400;-71
2023/01/25 03:54:29;;;;;;;48.20;30.73;;;2.70;59.00;;;;;;5070636;28;20391;-71
2023/01/25 03:56:54;;;;;;;48.73;29.57;;;2.50;60.40;;;;;;5072574;28;20433;-72
2023/01/25 03:59:20;;;;;;;45.90;27.50;;;2.50;61.20;;;;;;5072692;28;20407;-74
2023/01/25 04:01:46;;;;;;;46.67;28.63;;;2.50;61.70;;;;;;5054100;28;20718;-72
2023/01/25 04:04:11;;;;;;;43.10;26.90;;;2.50;61.90;;;;;;5053576;28;20481;-72
2023/01/25 04:06:37;;;;;;;45.90;28.38;;;2.60;62.20;;;;;;5070503;28;20387;-73
2023/01/25 04:09:03;;;;;;;46.58;28.75;;;2.70;60.30;;;;;;5052386;28;20395;-73
2023/01/25 04:11:28;;;;;;;51.67;29.95;;;2.70;62.00;;;;;;5070385;28;20898;-73
2023/01/25 04:13:54;;;;;;;46.83;28.90;;;2.70;62.70;;;;;;5070773;28;20376;-73
2023/01/25 04:16:19;;;;;;;47.33;29.90;;;2.60;63.60;;;;;;5070637;28;20400;-72
2023/01/25 04:18:45;;;;;;;47.33;29.27;;;2.60;64.10;;;;;;5075786;28;20368;-72
2023/01/25 04:21:10;;;;;;;42.43;27.40;;;2.60;63.80;;;;;;5076210;28;20411;-74
2023/01/25 04:23:36;;;;;;;49.67;29.83;;;2.60;61.70;;;;;;5073991;28;20387;-72
2023/01/25 04:26:06;;;;;;;49.40;31.27;;;2.60;61.80;;;;;;5070184;28;20868;-72
2023/01/25 04:28:34;;;;;;;48.50;30.23;;;2.60;62.10;;;;;;5070381;28;20476;-72
2023/01/25 04:31:00;;;;;;;52.75;30.98;;;2.50;63.00;;;;;;5069977;28;20417;-72
2023/01/25 04:33:26;;;;;;;45.10;28.38;;;2.50;62.60;;;;;;5070298;28;20813;-73
2023/01/25 04:35:52;;;;;;;49.92;31.30;;;2.70;61.80;;;;;;5070563;28;20407;-73
2023/01/25 04:38:18;;;;;;;45.40;29.10;;;2.80;59.80;;;;;;5070632;28;20382;-72
2023/01/25 04:40:44;;;;;;;49.75;31.15;;;2.80;60.00;;;;;;5070161;28;20379;-72
2023/01/25 04:43:12;;;;;;;52.17;32.03;;;2.70;59.80;;;;;;5070668;28;20388;-72
2023/01/25 04:45:38;;;;;;;47.10;28.85;;;2.60;60.70;;;;;;5070814;28;20407;-73
2023/01/25 04:48:08;;;;;;;42.72;27.38;;;2.70;61.20;;;;;;5073144;28;20472;-73
2023/01/25 04:50:35;;;;;;;44.95;28.00;;;2.70;61.20;;;;;;5079093;28;20402;-71
2023/01/25 04:53:00;;;;;;;44.20;28.40;;;2.70;62.00;;;;;;5081966;28;20431;-72
2023/01/25 04:55:26;;;;;;;46.23;29.87;;;2.80;60.10;;;;;;5086444;28;20405;-73
2023/01/25 04:57:52;;;;;;;53.23;30.67;;;2.80;60.30;;;;;;5083635;28;20490;-72
2023/01/25 05:00:18;;;;;;;48.80;30.60;;;2.70;61.10;;;;;;5053250;28;20448;-72
2023/01/25 05:02:44;;;;;;;47.45;29.80;;;2.60;61.90;;;;;;5073427;28;20382;-72
2023/01/25 05:05:10;;;;;;;52.42;30.98;;;2.70;62.30;;;;;;5068864;28;20760;-72
2023/01/25 05:07:35;;;;;;;53.33;32.07;;;2.70;61.10;;;;;;5071379;28;20395;-71
2023/01/25 05:10:01;;;;;;;52.50;32.10;;;2.70;61.10;;;;;;5076912;28;20744;-70
2023/01/25 05:12:27;;;;;;;54.97;32.03;;;2.70;61.30;;;;;;5068922;28;20605;-71
2023/01/25 05:14:52;;;;;;;55.80;33.00;;;2.60;62.00;;;;;;5055464;28;20380;-72
2023/01/25 05:17:18;;;;;;;54.63;31.60;;;2.60;62.80;;;;;;5073528;28;20583;-72
2023/01/25 05:19:43;;;;;;;61.23;33.60;;;2.60;63.50;;;;;;5071129;28;20384;-72
2023/01/25 05:22:19;;;;;;;59.53;33.67;;;2.60;64.30;;;;;;5052856;28;20447;-72
2023/01/25 05:24:45;;;;;;;56.10;33.60;;;2.70;66.50;;;;;;5052983;28;20389;-72
2023/01/25 05:27:13;;;;;;;57.78;34.47;;;2.80;65.60;;;;;;5053949;28;20781;-72
2023/01/25 05:29:41;;;;;;;66.80;37.00;;;2.70;65.70;;;;;;5053048;28;20394;-73
2023/01/25 05:32:11;;;;;;;64.65;36.58;;;2.60;66.50;;;;;;5053802;28;20468;-74
2023/01/25 05:34:37;;;;;;;64.28;37.25;;;2.60;67.30;;;;;;5036807;28;20382;-73
2023/01/25 05:37:05;;;;;;;64.53;36.45;;;2.70;67.80;;;;;;5054561;28;20401;-73
2023/01/25 05:39:30;;;;;;;62.10;35.70;;;2.70;66.80;;;;;;5054207;28;20742;-73
2023/01/25 05:41:56;;;;;;;61.43;35.47;;;2.70;65.10;;;;;;5053899;28;20397;-73
2023/01/25 05:44:22;;;;;;;57.55;34.80;;;2.70;64.50;;;;;;5053571;28;20382;-74
2023/01/25 05:46:48;;;;;;;61.30;33.95;;;2.70;64.30;;;;;;5053064;28;20468;-72
2023/01/25 05:49:14;;;;;;;59.90;34.33;;;2.70;64.60;;;;;;5052889;28;20393;-73
2023/01/25 05:51:40;;;;;;;61.25;34.80;;;2.70;64.50;;;;;;5052829;28;20404;-73
2023/01/25 05:54:07;;;;;;;54.90;32.95;;;2.70;65.30;;;;;;5052906;28;20389;-73
2023/01/25 05:56:33;;;;;;;64.15;35.42;;;3.20;59.90;;;;;;5053840;28;20417;-72
2023/01/25 05:58:59;;;;;;;54.90;30.75;;;3.30;57.60;;;;;;5052796;28;20377;-72
2023/01/25 06:01:26;;;;;;;60.00;32.33;;;3.30;57.50;;;;;;5055647;28;20385;-71
2023/01/25 06:03:51;;;;;;;66.10;34.38;;;3.20;58.00;;;;;;5052535;28;20385;-73
2023/01/25 06:06:17;;;;;;;60.33;34.60;;;3.20;58.10;;;;;;5052110;28;20464;-73
2023/01/25 06:08:43;;;;;;;64.47;35.50;;;2.90;61.30;;;;;;5052148;28;20384;-72
2023/01/25 06:11:10;;;;;;;63.17;35.80;;;2.80;64.40;;;;;;5052861;28;20875;-72
2023/01/25 06:13:36;;;;;;;70.00;38.70;;;2.90;64.60;;;;;;5052939;28;20419;-73
2023/01/25 06:16:02;;;;;;;65.45;36.17;;;2.80;63.70;;;;;;5053891;28;20496;-72
2023/01/25 06:18:29;;;;;;;64.03;36.88;;;2.80;63.70;;;;;;5054246;28;20467;-73
2023/01/25 06:20:56;;;;;;;64.77;33.80;;;2.70;63.90;;;;;;5053914;28;20475;-73
2023/01/25 06:23:21;;;;;;;60.45;33.90;;;3.00;61.90;;;;;;5037057;28;20754;-73
2023/01/25 06:25:47;;;;;;;63.37;35.13;;;3.10;59.60;;;;;;5055638;28;20393;-73
2023/01/25 06:28:12;;;;;;;63.50;36.70;;;3.20;58.30;;;;;;5053277;28;20455;-73
2023/01/25 06:30:38;;;;;;;67.78;38.60;;;3.10;58.30;;;;;;5053314;28;20388;-74
2023/01/25 06:33:04;;;;;;;66.22;35.45;;;3.00;61.10;;;;;;5053402;28;20385;-74
2023/01/25 06:35:31;;;;;;;53.53;31.38;;;3.00;61.10;;;;;;5035548;28;20401;-73
2023/01/25 06:37:58;;;;;;;57.67;31.90;;;3.30;57.60;;;;;;5053328;28;20493;-73
2023/01/25 06:40:25;;;;;;;55.53;31.02;;;3.40;56.00;;;;;;5035257;28;20400;-72
2023/01/25 06:42:50;;;;;;;58.90;33.50;;;3.20;56.60;;;;;;5052281;28;20400;-72
2023/01/25 06:45:16;;;;;;;57.10;33.33;;;3.10;57.90;;;;;;5052239;28;20870;-72
2023/01/25 06:47:41;;;;;;;62.78;34.00;;;3.00;59.00;;;;;;5051943;28;20778;-73
2023/01/25 06:50:08;;;;;;;67.27;37.20;;;3.00;58.90;;;;;;5052331;28;20393;-72
2023/01/25 06:52:37;;;;;;;70.85;37.88;;;2.80;61.50;;;;;;5051930;28;20467;-72
2023/01/25 06:55:08;;;;;;;71.15;37.75;;;2.60;63.50;;;;;;5052401;28;20394;-72
2023/01/25 06:57:34;;;;;;;71.18;39.22;;;2.60;65.10;;;;;;5043679;28;20393;-73
2023/01/25 07:00:00;;;;;;;65.25;37.20;;;2.60;65.00;;;;;;5064424;28;20460;-71
2023/01/25 07:02:25;;;;;;;72.13;39.97;;;2.60;66.30;;;;;;5059060;28;20746;-73
2023/01/25 07:04:51;;;;;;;70.13;40.80;;;2.50;67.70;;;;;;5051901;28;20377;-73
2023/01/25 07:07:16;;;;;;;63.77;37.97;;;2.50;68.40;;;;;;5051562;28;20442;-73
2023/01/25 07:09:42;;;;;;;68.22;38.88;;;2.50;69.00;;;;;;5033014;28;20484;-73
2023/01/25 07:12:07;;;;;;;69.13;39.17;;;2.50;70.10;;;;;;5051046;28;20384;-72
2023/01/25 07:14:33;;;;;;;63.75;35.60;;;2.60;69.80;;;;;;5051090;28;20449;-72
2023/01/25 07:16:59;;;;;;;70.40;39.15;;;2.80;64.10;;;;;;5050711;28;20456;-74
2023/01/25 07:19:25;;;;;;;66.07;37.20;;;2.90;68.10;;;;;;5051484;28;20364;-71
2023/01/25 07:21:51;;;;;;;66.65;37.40;;;3.30;62.70;;;;;;5050946;28;20680;-73
2023/01/25 07:24:18;;;;;;;65.53;34.43;;;3.30;59.30;;;;;;5051783;28;20381;-72
2023/01/25 07:26:44;;;;;;;68.18;38.78;;;3.20;59.70;;;;;;5052004;28;20425;-72
2023/01/25 07:29:14;;;;;;;58.80;32.50;;;3.20;63.00;;;;;;5054063;28;20902;-72
2023/01/25 07:31:40;;;;;;;61.08;33.30;;;3.10;59.80;;;;;;5063442;28;20390;-73
2023/01/25 07:34:09;;;;;;;66.05;35.15;;;2.90;59.10;;;;;;5057708;28;20389;-73
2023/01/25 07:36:34;;;;;;;60.13;31.67;;;2.80;60.20;;;;;;5051233;28;20478;-73
2023/01/25 07:39:02;;;;;;;63.88;34.88;;;2.80;60.70;;;;;;5050164;28;20492;-74
2023/01/25 07:41:28;;;;;;;61.20;32.53;;;2.70;61.90;;;;;;5051256;28;20404;-73
2023/01/25 07:43:54;;;;;;;60.17;30.83;;;2.70;62.20;;;;;;5051878;28;20765;-72
2023/01/25 07:46:19;;;;;;;69.15;35.90;;;2.60;62.90;;;;;;5051200;28;20396;-72
2023/01/25 07:48:47;;;;;;;70.00;34.83;;;2.40;65.00;;;;;;5051016;28;20870;-73
2023/01/25 07:51:23;;;;;;;63.57;32.43;;;2.50;65.60;;;;;;5052143;28;20476;-75
2023/01/25 07:53:53;;;;;;;65.50;34.40;;;2.50;64.40;;;;;;5051608;28;20388;-72
2023/01/25 07:56:20;;;;;;;62.53;33.95;;;2.50;64.70;;;;;;5051315;28;20771;-75
2023/01/25 07:58:46;;;;;;;64.78;34.20;;;2.60;65.30;;;;;;5033583;28;20393;-75
2023/01/25 08:01:15;;;;;;;65.15;32.60;;;2.60;64.40;;;;;;5051377;28;20738;-73
2023/01/25 08:03:40;;;;;;;72.95;36.67;;;2.60;64.10;;;;;;5054482;28;20377;-74
2023/01/25 08:06:07;;;;;;;64.20;35.50;;;2.60;64.90;;;;;;5037157;28;20394;-74
2023/01/25 08:08:35;;;;;;;62.92;33.70;;;2.60;65.30;;;;;;5054981;28;20723;-76
2023/01/25 08:11:11;;;;;;;59.92;32.03;;;2.60;64.50;;;;;;5053977;28;20393;-74
2023/01/25 08:13:37;;;;;;;66.05;34.38;;;2.60;62.40;;;;;;5053423;28;20881;-76
2023/01/25 08:16:04;;;;;;;64.78;34.25;;;2.60;61.80;;;;;;5051346;28;20948;-74
2023/01/25 08:18:29;;;;;;;67.28;36.30;;;2.60;62.20;;;;;;5051919;28;20364;-74
2023/01/25 08:20:58;;;;;;;70.30;39.45;;;2.50;64.30;;;;;;5050431;28;20438;-73
2023/01/25 08:23:23;;;;;;;71.13;37.08;;;2.50;66.60;;;;;;5050715;28;20897;-75
2023/01/25 08:25:49;;;;;;;60.20;33.10;;;2.70;64.40;;;;;;5054401;28;20385;-74
2023/01/25 08:28:14;;;;;;;62.53;33.83;;;2.70;61.60;;;;;;5033955;28;20396;-74
2023/01/25 08:30:40;;;;;;;62.33;34.47;;;2.70;62.30;;;;;;5036273;28;20821;-73
2023/01/25 08:33:08;;;;;;;78.90;36.50;;;2.70;62.90;;;;;;5054425;28;20393;-75
2023/01/25 08:35:35;;;;;;;59.60;32.10;;;2.70;62.30;;;;;;5055050;28;20508;-74
2023/01/25 08:38:01;;;;;;;59.92;31.63;;;2.60;60.10;;;;;;5055089;28;20389;-75
2023/01/25 08:40:27;;;;;;;66.70;34.40;;;2.50;60.90;;;;;;5054587;28;20381;-73
2023/01/25 08:42:52;;;;;;;60.72;32.88;;;2.40;61.80;;;;;;5054103;28;20381;-75
2023/01/25 08:45:18;;;;;;;61.22;32.50;;;2.40;62.50;;;;;;5054111;28;20416;-72
2023/01/25 08:47:44;;;;;;;68.80;34.73;;;2.40;61.80;;;;;;5054806;28;20420;-75
2023/01/25 08:50:10;;;;;;;67.32;35.20;;;2.40;62.00;;;;;;5055118;28;20396;-75
2023/01/25 08:52:35;;;;;;;69.60;37.10;;;2.50;62.40;;;;;;5054408;28;20417;-73
2023/01/25 08:55:01;;;;;;;67.05;34.03;;;2.60;62.70;;;;;;5054153;28;20424;-75
2023/01/25 08:57:26;;;;;;;65.07;33.00;;;2.60;60.90;;;;;;5036627;28;20893;-75
2023/01/25 08:59:52;;;;;;;66.88;36.30;;;2.60;60.90;;;;;;5054834;28;20378;-75
2023/01/25 09:02:20;;;;;;;74.37;38.10;;;2.60;61.40;;;;;;5055730;28;20378;-76
2023/01/25 09:04:45;;;;;;;73.70;39.83;;;2.60;63.60;;;;;;5055175;28;20510;-72
2023/01/25 09:07:11;;;;;;;71.90;38.80;;;2.70;61.90;;;;;;5054835;28;20404;-75
2023/01/25 09:09:36;;;;;;;71.03;39.67;;;2.80;60.50;;;;;;5057737;28;20381;-76
2023/01/25 09:12:02;;;;;;;69.85;37.17;;;2.80;59.80;;;;;;5055898;28;20389;-75
2023/01/25 09:14:27;;;;;;;69.53;38.20;;;2.80;60.20;;;;;;5054901;28;20389;-75
2023/01/25 09:16:53;;;;;;;70.07;37.07;;;2.90;59.20;;;;;;5054190;28;20451;-73
2023/01/25 09:19:18;;;;;;;66.47;36.73;;;2.90;58.20;;;;;;5053625;28;20727;-75
2023/01/25 09:21:44;;;;;;;70.47;38.43;;;3.00;59.00;;;;;;5053207;28;20381;-75
2023/01/25 09:24:10;;;;;;;60.97;34.03;;;3.00;58.60;;;;;;5053599;28;20531;-74
2023/01/25 09:26:40;;;;;;;68.38;38.30;;;3.00;57.20;;;;;;5053677;28;20889;-73
2023/01/25 09:29:07;;;;;;;66.78;36.47;;;2.90;59.10;;;;;;5035576;28;20409;-73
2023/01/25 09:31:34;;;;;;;71.93;38.35;;;2.90;58.40;;;;;;5053888;28;20382;-73
2023/01/25 09:34:00;;;;;;;68.60;35.53;;;2.90;58.40;;;;;;5058907;28;20408;-74
2023/01/25 09:36:26;;;;;;;72.85;38.05;;;3.00;59.00;;;;;;5071673;28;20622;-75
2023/01/25 09:38:51;;;;;;;63.58;36.35;;;3.00;58.90;;;;;;5065592;28;20765;-75
2023/01/25 09:41:29;;;;;;;68.20;34.10;;;3.00;59.40;;;;;;5052479;28;20377;-74
2023/01/25 09:44:00;;;;;;;71.28;36.75;;;3.00;57.70;;;;;;5053481;28;20382;-74
2023/01/25 09:47:04;;;;;;;79.55;41.92;;;2.90;59.20;;;;;;5036725;28;20496;-76
2023/01/25 09:49:56;;;;;;;74.80;40.90;;;2.80;62.20;;;;;;5012162;28;20397;-74
2023/01/25 09:52:54;;;;;;;84.00;44.08;;;2.70;64.30;;;;;;5053810;28;20385;-74
2023/01/25 09:55:23;;;;;;;77.47;41.70;;;2.70;64.40;;;;;;5054470;28;20976;-74
2023/01/25 09:57:52;;;;;;;85.47;44.28;;;2.70;67.50;;;;;;5036462;28;20404;-75
2023/01/25 10:00:26;;;;;;;80.30;42.40;;;2.80;67.40;;;;;;5054100;28;20377;-74
2023/01/25 10:03:37;;;;;;;77.47;40.88;;;3.10;65.40;;;;;;5065298;28;20412;-72
2023/01/25 10:06:03;;;;;;;79.30;42.00;;;3.40;58.50;;;;;;5021074;28;20393;-71
2023/01/25 10:08:31;;;;;;;71.00;37.25;;;3.50;57.10;;;;;;5046569;28;20394;-75
2023/01/25 10:11:12;;;;;;;84.95;42.30;;;3.50;56.20;;;;;;5052275;28;20393;-75
2023/01/25 10:13:38;;;;;;;71.63;36.53;;;3.40;57.80;;;;;;5052327;28;20436;-75
2023/01/25 10:16:30;;;;;;;71.95;35.63;;;3.30;56.50;;;;;;5052250;28;20929;-74
2023/01/25 10:19:18;;;;;;;68.70;33.13;;;3.10;57.00;;;;;;5052445;28;20408;-75
2023/01/25 10:21:48;;;;;;;73.65;35.83;;;2.90;58.10;;;;;;5052118;28;20388;-74
2023/01/25 10:24:29;;;;;;;71.35;34.03;;;2.80;60.00;;;;;;5052449;28;20386;-73
2023/01/25 10:26:57;;;;;;;72.38;36.17;;;2.80;61.00;;;;;;5052334;28;20390;-73
2023/01/25 10:29:35;;;;;;;79.88;38.25;;;2.70;61.80;;;;;;5053212;28;20429;-75
2023/01/25 10:32:25;;;;;;;73.07;35.80;;;2.70;62.90;;;;;;5052992;28;20424;-73
2023/01/25 10:34:54;;;;;;;74.63;36.05;;;2.70;63.00;;;;;;5052289;28;20472;-75
2023/01/25 10:37:26;;;;;;;76.13;38.13;;;2.70;63.00;;;;;;5052548;28;20766;-73
2023/01/25 10:39:59;;;;;;;69.60;32.60;;;2.70;63.80;;;;;;5052250;28;20378;-76
2023/01/25 10:42:28;;;;;;;79.70;37.87;;;2.70;64.10;;;;;;5034499;28;20459;-75
2023/01/25 10:44:54;;;;;;;84.57;42.73;;;2.60;65.30;;;;;;5034512;28;20794;-75
2023/01/25 10:47:34;;;;;;;79.03;39.83;;;2.60;67.40;;;;;;5034969;28;20427;-72
2023/01/25 10:49:59;;;;;;;85.97;41.92;;;2.80;65.40;;;;;;5052178;28;20397;-75
2023/01/25 10:52:27;;;;;;;83.23;42.43;;;2.80;66.30;;;;;;5051207;28;20435;-74
2023/01/25 10:55:15;;;;;;;84.43;42.20;;;2.80;67.00;;;;;;5052998;28;20381;-75
2023/01/25 10:57:46;;;;;;;77.90;36.65;;;3.00;67.00;;;;;;5054265;28;20501;-74
2023/01/25 11:00:22;;;;;;;77.50;37.20;;;3.20;59.50;;;;;;5053157;28;20382;-75
2023/01/25 11:02:47;;;;;;;75.75;37.78;;;3.10;59.20;;;;;;5053131;28;20384;-75
2023/01/25 11:05:28;;;;;;;79.87;40.13;;;3.10;60.70;;;;;;5052893;28;20484;-73
2023/01/25 11:07:54;;;;;;;92.75;41.40;;;3.00;60.90;;;;;;5053597;28;20495;-76
2023/01/25 11:10:35;;;;;;;80.88;40.08;;;3.00;61.50;;;;;;5052558;28;20420;-73
2023/01/25 11:13:16;;;;;;;85.03;42.47;;;3.10;62.60;;;;;;5053447;28;20450;-74
2023/01/25 11:15:51;;;;;;;74.88;37.83;;;3.10;62.90;;;;;;5053849;28;20405;-76
2023/01/25 11:18:24;;;;;;;72.72;35.08;;;3.20;61.20;;;;;;5055361;28;20464;-74
2023/01/25 11:21:13;;;;;;;78.70;39.63;;;3.20;59.90;;;;;;5055101;28;20481;-73
2023/01/25 11:23:39;;;;;;;89.38;45.22;;;3.00;61.70;;;;;;5037264;28;20770;-75
2023/01/25 11:26:14;;;;;;;87.63;43.00;;;2.90;65.50;;;;;;5054914;28;20455;-76
2023/01/25 11:28:40;;;;;;;82.90;42.25;;;3.00;65.30;;;;;;5053440;28;20472;-75
2023/01/25 11:31:11;;;;;;;81.57;39.80;;;3.20;61.20;;;;;;5052913;28;20389;-74
2023/01/25 11:33:36;;;;;;;72.13;34.90;;;3.20;60.30;;;;;;5052537;28;20416;-73
2023/01/25 11:36:25;;;;;;;70.80;34.70;;;3.00;60.00;;;;;;5052804;28;20441;-75
2023/01/25 11:39:16;;;;;;;85.63;37.53;;;2.80;62.30;;;;;;5051617;28;20464;-74
2023/01/25 11:41:59;;;;;;;92.05;42.88;;;2.80;64.20;;;;;;5051872;28;20401;-76
2023/01/25 11:45:02;;;;;;;83.40;40.60;;;2.60;67.90;;;;;;5052979;28;20885;-74
2023/01/25 11:48:04;;;;;;;95.00;43.30;;;2.70;69.40;;;;;;5052488;28;20735;-76
2023/01/25 11:50:33;;;;;;;83.72;40.78;;;2.80;69.70;;;;;;5029563;28;20425;-75
2023/01/25 11:53:26;;;;;;;87.57;43.23;;;3.00;66.60;;;;;;5051903;28;20454;-75
2023/01/25 11:56:21;;;;;;;83.20;39.42;;;2.80;66.70;;;;;;5051871;28;20405;-73
2023/01/25 11:59:26;;;;;;;80.60;40.13;;;2.80;67.20;;;;;;5053587;28;20688;-75
2023/01/25 12:02:13;;;;;;;92.95;42.90;;;2.80;68.00;;;;;;5052677;28;20377;-75
2023/01/25 12:05:06;;;;;;;82.75;41.05;;;2.70;69.30;;;;;;5057925;28;20443;-76
2023/01/25 12:07:44;;;;;;;79.05;40.65;;;2.80;67.90;;;;;;5043468;28;20468;-75
2023/01/25 12:10:33;;;;;;;83.57;40.60;;;2.80;67.00;;;;;;5051466;28;20395;-73
2023/01/25 12:13:06;;;;;;;84.43;41.83;;;2.80;67.30;;;;;;5067513;28;20389;-75
2023/01/25 12:15:59;;;;;;;92.95;42.72;;;2.70;67.80;;;;;;5055321;28;20405;-75
2023/01/25 12:18:34;;;;;;;78.63;40.40;;;2.70;68.90;;;;;;5055534;28;20373;-75
2023/01/25 12:21:15;;;;;;;81.82;41.10;;;2.90;67.90;;;;;;5054936;28;20746;-73
2023/01/25 12:23:41;;;;;;;79.32;40.63;;;2.90;67.50;;;;;;5037203;28;20393;-73
2023/01/25 12:26:33;;;;;;;90.27;42.87;;;3.00;66.10;;;;;;5055953;28;20409;-73
2023/01/25 12:29:13;;;;;;;75.30;40.15;;;3.10;66.60;;;;;;5057904;28;20385;-75
2023/01/25 12:31:38;;;;;;;88.18;44.38;;;3.50;59.70;;;;;;5048427;28;20392;-74
2023/01/25 12:34:11;;;;;;;84.53;42.70;;;3.70;55.90;;;;;;5054416;28;20389;-73
2023/01/25 12:36:42;;;;;;;107.78;44.95;;;3.80;55.20;;;;;;5050995;28;20405;-75
2023/01/25 12:39:13;;;;;;;88.20;43.20;;;3.40;57.50;;;;;;5057823;28;20377;-73
2023/01/25 12:41:47;;;;;;;95.30;44.90;;;3.20;60.10;;;;;;5054977;28;20547;-74
2023/01/25 12:44:24;;;;;;;87.78;43.97;;;3.10;63.40;;;;;;5054558;28;20377;-72
2023/01/25 12:47:31;;;;;;;91.38;44.97;;;3.10;64.10;;;;;;5054818;28;20467;-74